Terminal Aerodrome Forecast
Issued by NWS Brownsville, TX

Current Version | Previous Version | Text Only | Print | Product List | Glossary Off
Versions: 1 2 3 4 5 6 7 8 9 10 11 12 13 14 15 16

000
FTUS44 KBRO 261741
TAFBRO
TAF
KBRO 261741Z 2618/2718 14010KT 6SM HZ BKN035
     FM270200 14008KT P6SM BKN015
     FM270600 14012G18KT 4SM HZ BR BKN010
     FM271400 33012G18KT P6SM BKN030=

USA.gov is the U.S. government's official web portal to all federal, state and local government web resources and services.